Lampang, Thailand
Current Conditions -  °F | °C
As of 6:30 PM on Saturday 25 Oct 2014 (Local Time) from VTCC Reporting Station
Few Clouds Few Clouds  
Wind Chill: 28°   Ceiling: Unl
Heat Index: 30°   Visibility: 6mi
Dew Point: 20°   Wind: 3mph
Humidity: 62%   Direction: 330°NNW
Pressure: 29.91"   Gusts: NA
Location:  18.29°N, 99.48°E
Report Text: VTCC 251130Z 33003KT 9999 FEW035 28/20 Q1013 A2991 NOSIG
Loading
Personal Weather Stations






























Interactive Weather Map
Tropical Storm Tracking
New forecast layout! Learn more

10-Day Weather Forecast

Advertisements
Track Severe Weather on mobile